バンクーバー の空港の天気 - METARとTAF

バンクーバー国際空港 ( CYVR / YVR ) - カナダ ブリティッシュコロンビア州バンクーバー
飛行場実況気象(Metar)
観測時間01/19 18:00 PST (01/20 02:00 UTC)
風向・風速東 2m/s
視程10km以上
天気現象
少しの雲 雲底高度 1370m
全天の4割程度の雲 雲底高度 1740m
全天の4割程度の雲 雲底高度 2190m
気温7℃
湿度76%
気圧1020.4hPa
METARCYVR 200200Z 08004KT 050V160 20SM FEW045 SCT057 SCT072 07/03 A3013 RMK SC1SC2AC1 SLP204
過去の天気等 Google飛行場航空写真 Wunderground天気予報

過去48時間のMETAR

飛行場予報(TAF)
発表時間: 1/19 18:44 PST (1/20 02:44 UTC)
予報対象時間: 19日19時 PST ~ 20日22時 PST
風向・風速東 3m/s
視程10km以上
少しの雲 雲底高度 910m
全天の4割程度の雲 雲底高度 1830m
19日19時 PST ~ 19日20時 PST に一時的に
視程10km以上
天気現象弱いしゅう雨
全天の8割程度の雲 雲底高度 910m
19日20時 PST から
風向・風速東 4m/s
視程10km以上
全天の4割程度の雲 雲底高度 460m
全天の8割程度の雲 雲底高度 910m
19日20時 PST ~ 20日4時 PST に一時的に
視程10km以上
天気現象弱いしゅう雨
20日4時 PST から
風向・風速不定 2m/s
視程10km以上
全天の4割程度の雲 雲底高度 760m
全天の4割程度の雲 雲底高度 3660m
全天の8割程度の雲 雲底高度 6100m
20日8時 PST ~ 20日10時 PST に徐々に
風向・風速西北西 5m/s
TAF CYVR 200244Z 2003/2106 08005KT P6SM FEW030 SCT060
TEMPO 2003/2004 P6SM -SHRA BKN030
FM200400 08008KT P6SM SCT015 BKN030
TEMPO 2004/2012 P6SM -SHRA
FM201200 VRB03KT P6SM SCT025 SCT120 BKN200
BECMG 2016/2018 30010KT RMK NXT FCST BY 200600Z